Aviation Digital Data Service (ADDS)

Output produced by METARs form (1544 UTC 20 May 2018)
found at http://aviationweather.gov/adds/metars/
 
KSLK 201413Z 2014/2112 34006KT P6SM VCSH OVC015 
     TEMPO 2014/2015 34007KT 3SM -RA BR BKN009 
     FM201700 32008KT P6SM BKN020 
     FM202000 33009KT P6SM SCT070 
     FM210000 30007KT P6SM FEW200